sensor_id;sensor_type;location;lat;lon;timestamp;pressure;altitude;pressure_sealevel;temperature;humidity
61128;BME280;47013;42.664;23.242;2022-12-10T00:02:25;93399.72;;;7.60;100.00
61128;BME280;47013;42.664;23.242;2022-12-10T00:04:50;93386.91;;;7.67;100.00
61128;BME280;47013;42.664;23.242;2022-12-10T00:07:15;93393.13;;;7.64;100.00
61128;BME280;47013;42.664;23.242;2022-12-10T00:09:40;93394.25;;;7.67;100.00
61128;BME280;47013;42.664;23.242;2022-12-10T00:12:06;93402.78;;;7.62;100.00
61128;BME280;47013;42.664;23.242;2022-12-10T00:14:31;93386.19;;;7.63;100.00
61128;BME280;47013;42.664;23.242;2022-12-10T00:16:56;93395.78;;;7.72;100.00
61128;BME280;47013;42.664;23.242;2022-12-10T00:19:21;93390.72;;;7.74;100.00
61128;BME280;47013;42.664;23.242;2022-12-10T00:21:46;93386.81;;;7.82;100.00
61128;BME280;47013;42.664;23.242;2022-12-10T00:24:12;93396.78;;;7.85;100.00
61128;BME280;47013;42.664;23.242;2022-12-10T00:26:38;93403.38;;;7.84;100.00
61128;BME280;47013;42.664;23.242;2022-12-10T00:29:04;93392.13;;;7.89;100.00
61128;BME280;47013;42.664;23.242;2022-12-10T00:31:30;93372.00;;;7.97;100.00
61128;BME280;47013;42.664;23.242;2022-12-10T00:33:57;93402.50;;;7.90;100.00
61128;BME280;47013;42.664;23.242;2022-12-10T00:36:26;93377.06;;;7.91;100.00
61128;BME280;47013;42.664;23.242;2022-12-10T00:38:52;93400.72;;;7.77;100.00
61128;BME280;47013;42.664;23.242;2022-12-10T00:41:18;93387.19;;;7.80;100.00
61128;BME280;47013;42.664;23.242;2022-12-10T00:43:43;93389.56;;;7.75;100.00
61128;BME280;47013;42.664;23.242;2022-12-10T00:46:09;93398.03;;;7.77;100.00
61128;BME280;47013;42.664;23.242;2022-12-10T00:48:35;93384.13;;;7.78;100.00
61128;BME280;47013;42.664;23.242;2022-12-10T00:51:04;93385.50;;;7.56;100.00
61128;BME280;47013;42.664;23.242;2022-12-10T00:53:31;93377.47;;;7.49;100.00
61128;BME280;47013;42.664;23.242;2022-12-10T00:55:57;93407.94;;;7.42;100.00
61128;BME280;47013;42.664;23.242;2022-12-10T00:58:23;93406.38;;;7.48;100.00
61128;BME280;47013;42.664;23.242;2022-12-10T01:00:48;93406.69;;;7.54;100.00
61128;BME280;47013;42.664;23.242;2022-12-10T01:03:14;93388.28;;;7.45;100.00
61128;BME280;47013;42.664;23.242;2022-12-10T01:05:40;93390.13;;;7.55;100.00
61128;BME280;47013;42.664;23.242;2022-12-10T01:08:05;93400.13;;;7.58;100.00
61128;BME280;47013;42.664;23.242;2022-12-10T01:10:30;93389.38;;;7.51;100.00
61128;BME280;47013;42.664;23.242;2022-12-10T01:12:55;93392.44;;;7.57;100.00
61128;BME280;47013;42.664;23.242;2022-12-10T01:15:20;93382.41;;;7.57;100.00
61128;BME280;47013;42.664;23.242;2022-12-10T01:17:46;93383.94;;;7.55;100.00
61128;BME280;47013;42.664;23.242;2022-12-10T01:20:11;93369.34;;;7.52;100.00
61128;BME280;47013;42.664;23.242;2022-12-10T01:22:37;93365.84;;;7.55;100.00
61128;BME280;47013;42.664;23.242;2022-12-10T01:25:04;93353.56;;;7.51;100.00
61128;BME280;47013;42.664;23.242;2022-12-10T01:27:29;93379.34;;;7.55;100.00
61128;BME280;47013;42.664;23.242;2022-12-10T01:29:55;93376.94;;;7.64;100.00
61128;BME280;47013;42.664;23.242;2022-12-10T01:32:20;93363.69;;;7.77;100.00
61128;BME280;47013;42.664;23.242;2022-12-10T01:34:45;93354.06;;;7.76;100.00
61128;BME280;47013;42.664;23.242;2022-12-10T01:37:10;93359.84;;;7.78;100.00
61128;BME280;47013;42.664;23.242;2022-12-10T01:39:36;93337.81;;;7.83;100.00
61128;BME280;47013;42.664;23.242;2022-12-10T01:42:02;93356.47;;;8.05;100.00
61128;BME280;47013;42.664;23.242;2022-12-10T01:46:53;93352.44;;;8.54;100.00
61128;BME280;47013;42.664;23.242;2022-12-10T01:49:24;93357.41;;;8.86;100.00
61128;BME280;47013;42.664;23.242;2022-12-10T01:51:51;93342.38;;;9.08;100.00
61128;BME280;47013;42.664;23.242;2022-12-10T01:54:18;93349.84;;;9.28;100.00
61128;BME280;47013;42.664;23.242;2022-12-10T01:56:45;93362.75;;;9.63;100.00
61128;BME280;47013;42.664;23.242;2022-12-10T01:59:11;93351.53;;;10.08;98.10
61128;BME280;47013;42.664;23.242;2022-12-10T02:04:06;93359.06;;;10.96;89.40
61128;BME280;47013;42.664;23.242;2022-12-10T02:11:42;93364.31;;;11.19;87.39
61128;BME280;47013;42.664;23.242;2022-12-10T02:14:12;93363.47;;;11.55;84.44
61128;BME280;47013;42.664;23.242;2022-12-10T02:16:45;93355.88;;;11.34;86.13
61128;BME280;47013;42.664;23.242;2022-12-10T02:19:15;93353.56;;;11.16;87.15
61128;BME280;47013;42.664;23.242;2022-12-10T02:21:42;93335.25;;;11.52;83.09
61128;BME280;47013;42.664;23.242;2022-12-10T02:24:11;93334.56;;;11.65;81.82
61128;BME280;47013;42.664;23.242;2022-12-10T02:29:17;93347.69;;;10.29;88.69
61128;BME280;47013;42.664;23.242;2022-12-10T02:31:44;93336.72;;;9.93;91.03
61128;BME280;47013;42.664;23.242;2022-12-10T02:34:11;93335.25;;;9.88;91.99
61128;BME280;47013;42.664;23.242;2022-12-10T02:36:38;93313.59;;;9.88;92.17
61128;BME280;47013;42.664;23.242;2022-12-10T02:39:05;93306.97;;;9.89;92.93
61128;BME280;47013;42.664;23.242;2022-12-10T02:41:34;93322.06;;;9.90;93.27
61128;BME280;47013;42.664;23.242;2022-12-10T02:44:01;93311.78;;;9.82;94.39
61128;BME280;47013;42.664;23.242;2022-12-10T02:46:28;93310.25;;;9.81;94.93
61128;BME280;47013;42.664;23.242;2022-12-10T02:48:54;93312.53;;;10.02;94.87
61128;BME280;47013;42.664;23.242;2022-12-10T02:51:20;93320.75;;;10.18;92.24
61128;BME280;47013;42.664;23.242;2022-12-10T02:53:45;93328.91;;;10.38;90.73
61128;BME280;47013;42.664;23.242;2022-12-10T02:56:20;93336.28;;;10.74;89.58
61128;BME280;47013;42.664;23.242;2022-12-10T02:58:53;93318.03;;;11.10;87.55
61128;BME280;47013;42.664;23.242;2022-12-10T03:04:22;93310.03;;;10.87;89.53
61128;BME280;47013;42.664;23.242;2022-12-10T03:06:52;93318.22;;;10.31;90.89
61128;BME280;47013;42.664;23.242;2022-12-10T03:09:29;93314.72;;;10.11;93.10
61128;BME280;47013;42.664;23.242;2022-12-10T03:11:58;93333.38;;;9.85;95.39
61128;BME280;47013;42.664;23.242;2022-12-10T03:14:33;93320.16;;;9.67;96.35
61128;BME280;47013;42.664;23.242;2022-12-10T03:16:59;93331.28;;;9.50;96.56
61128;BME280;47013;42.664;23.242;2022-12-10T03:19:26;93337.53;;;9.23;98.06
61128;BME280;47013;42.664;23.242;2022-12-10T03:21:53;93311.78;;;9.15;100.00
61128;BME280;47013;42.664;23.242;2022-12-10T03:24:19;93305.06;;;9.00;100.00
61128;BME280;47013;42.664;23.242;2022-12-10T03:26:46;93308.41;;;9.07;100.00
61128;BME280;47013;42.664;23.242;2022-12-10T03:29:14;93312.03;;;8.97;100.00
61128;BME280;47013;42.664;23.242;2022-12-10T03:31:40;93314.72;;;9.01;100.00
61128;BME280;47013;42.664;23.242;2022-12-10T03:34:06;93311.25;;;9.00;100.00
61128;BME280;47013;42.664;23.242;2022-12-10T03:36:33;93320.16;;;8.97;100.00
61128;BME280;47013;42.664;23.242;2022-12-10T03:38:59;93300.06;;;8.98;100.00
61128;BME280;47013;42.664;23.242;2022-12-10T03:41:25;93299.00;;;8.92;100.00
61128;BME280;47013;42.664;23.242;2022-12-10T03:43:51;93295.88;;;8.94;100.00
61128;BME280;47013;42.664;23.242;2022-12-10T03:46:17;93290.13;;;8.92;100.00
61128;BME280;47013;42.664;23.242;2022-12-10T03:48:42;93279.31;;;8.92;100.00
61128;BME280;47013;42.664;23.242;2022-12-10T03:51:07;93273.00;;;8.98;100.00
61128;BME280;47013;42.664;23.242;2022-12-10T03:53:32;93280.13;;;8.89;100.00
61128;BME280;47013;42.664;23.242;2022-12-10T03:59:00;93273.22;;;8.88;100.00
61128;BME280;47013;42.664;23.242;2022-12-10T04:01:26;93308.00;;;8.85;100.00
61128;BME280;47013;42.664;23.242;2022-12-10T04:03:51;93308.69;;;8.90;100.00
61128;BME280;47013;42.664;23.242;2022-12-10T04:06:17;93300.66;;;8.86;100.00
61128;BME280;47013;42.664;23.242;2022-12-10T04:08:43;93318.06;;;8.81;100.00
61128;BME280;47013;42.664;23.242;2022-12-10T04:11:09;93302.22;;;8.83;100.00
61128;BME280;47013;42.664;23.242;2022-12-10T04:13:35;93289.06;;;8.85;100.00
61128;BME280;47013;42.664;23.242;2022-12-10T04:16:19;93300.31;;;9.07;100.00
61128;BME280;47013;42.664;23.242;2022-12-10T04:19:01;93312.22;;;9.10;100.00
61128;BME280;47013;42.664;23.242;2022-12-10T04:21:31;93323.00;;;9.13;100.00
61128;BME280;47013;42.664;23.242;2022-12-10T04:24:27;93328.28;;;9.21;100.00
61128;BME280;47013;42.664;23.242;2022-12-10T04:27:13;93321.78;;;9.18;100.00
61128;BME280;47013;42.664;23.242;2022-12-10T04:29:41;93331.75;;;9.21;100.00
61128;BME280;47013;42.664;23.242;2022-12-10T04:32:06;93338.00;;;9.18;100.00
61128;BME280;47013;42.664;23.242;2022-12-10T04:34:31;93336.13;;;9.15;100.00
61128;BME280;47013;42.664;23.242;2022-12-10T04:36:57;93333.63;;;9.24;100.00
61128;BME280;47013;42.664;23.242;2022-12-10T04:39:23;93347.53;;;9.26;100.00
61128;BME280;47013;42.664;23.242;2022-12-10T04:41:49;93348.41;;;9.20;100.00
61128;BME280;47013;42.664;23.242;2022-12-10T04:44:14;93340.28;;;9.20;100.00
61128;BME280;47013;42.664;23.242;2022-12-10T04:46:39;93325.53;;;9.24;100.00
61128;BME280;47013;42.664;23.242;2022-12-10T04:49:05;93318.25;;;9.21;100.00
61128;BME280;47013;42.664;23.242;2022-12-10T04:51:30;93321.28;;;9.23;100.00
61128;BME280;47013;42.664;23.242;2022-12-10T04:53:56;93319.16;;;9.11;100.00
61128;BME280;47013;42.664;23.242;2022-12-10T04:56:21;93319.91;;;9.15;100.00
61128;BME280;47013;42.664;23.242;2022-12-10T04:58:46;93321.94;;;9.07;100.00
61128;BME280;47013;42.664;23.242;2022-12-10T05:01:11;93331.16;;;9.10;100.00
61128;BME280;47013;42.664;23.242;2022-12-10T05:03:37;93311.78;;;9.15;100.00
61128;BME280;47013;42.664;23.242;2022-12-10T05:06:04;93326.56;;;9.07;100.00
61128;BME280;47013;42.664;23.242;2022-12-10T05:08:29;93325.53;;;9.01;100.00
61128;BME280;47013;42.664;23.242;2022-12-10T05:10:55;93319.28;;;9.04;100.00
61128;BME280;47013;42.664;23.242;2022-12-10T05:13:20;93303.53;;;8.99;100.00
61128;BME280;47013;42.664;23.242;2022-12-10T05:15:45;93312.03;;;8.97;100.00
61128;BME280;47013;42.664;23.242;2022-12-10T05:18:10;93306.91;;;8.79;100.00
61128;BME280;47013;42.664;23.242;2022-12-10T05:20:35;93318.75;;;8.89;100.00
61128;BME280;47013;42.664;23.242;2022-12-10T05:23:01;93298.16;;;8.95;100.00
61128;BME280;47013;42.664;23.242;2022-12-10T05:25:45;93305.88;;;8.97;100.00
61128;BME280;47013;42.664;23.242;2022-12-10T05:28:20;93308.16;;;8.98;100.00
61128;BME280;47013;42.664;23.242;2022-12-10T05:30:45;93320.13;;;9.01;100.00
61128;BME280;47013;42.664;23.242;2022-12-10T05:33:10;93320.97;;;8.94;100.00
61128;BME280;47013;42.664;23.242;2022-12-10T05:35:35;93324.03;;;8.96;100.00
61128;BME280;47013;42.664;23.242;2022-12-10T05:38:01;93303.53;;;8.99;100.00
61128;BME280;47013;42.664;23.242;2022-12-10T05:40:26;93324.34;;;9.02;100.00
61128;BME280;47013;42.664;23.242;2022-12-10T05:42:51;93324.16;;;8.89;100.00
61128;BME280;47013;42.664;23.242;2022-12-10T05:45:16;93322.22;;;8.90;100.00
61128;BME280;47013;42.664;23.242;2022-12-10T05:47:42;93331.44;;;8.92;100.00
61128;BME280;47013;42.664;23.242;2022-12-10T05:50:07;93342.59;;;8.94;100.00
61128;BME280;47013;42.664;23.242;2022-12-10T05:52:32;93346.00;;;8.98;100.00
61128;BME280;47013;42.664;23.242;2022-12-10T05:54:57;93337.41;;;9.07;100.00
61128;BME280;47013;42.664;23.242;2022-12-10T05:57:23;93343.78;;;8.93;100.00
61128;BME280;47013;42.664;23.242;2022-12-10T05:59:48;93334.09;;;8.96;100.00
61128;BME280;47013;42.664;23.242;2022-12-10T06:02:13;93345.25;;;8.98;100.00
61128;BME280;47013;42.664;23.242;2022-12-10T06:04:38;93344.50;;;8.97;100.00
61128;BME280;47013;42.664;23.242;2022-12-10T06:07:04;93347.56;;;8.99;100.00
61128;BME280;47013;42.664;23.242;2022-12-10T06:09:29;93348.72;;;8.98;100.00
61128;BME280;47013;42.664;23.242;2022-12-10T06:11:54;93335.59;;;9.00;100.00
61128;BME280;47013;42.664;23.242;2022-12-10T06:14:19;93342.09;;;9.03;100.00
61128;BME280;47013;42.664;23.242;2022-12-10T06:16:44;93337.34;;;9.10;100.00
61128;BME280;47013;42.664;23.242;2022-12-10T06:19:10;93331.16;;;9.10;100.00
61128;BME280;47013;42.664;23.242;2022-12-10T06:21:35;93333.41;;;9.15;100.00
61128;BME280;47013;42.664;23.242;2022-12-10T06:24:00;93341.59;;;9.11;100.00
61128;BME280;47013;42.664;23.242;2022-12-10T06:26:26;93333.00;;;9.16;100.00
61128;BME280;47013;42.664;23.242;2022-12-10T06:28:51;93312.19;;;9.13;100.00
61128;BME280;47013;42.664;23.242;2022-12-10T06:31:17;93312.59;;;9.12;100.00
61128;BME280;47013;42.664;23.242;2022-12-10T06:33:43;93302.75;;;8.98;100.00
61128;BME280;47013;42.664;23.242;2022-12-10T06:36:09;93296.13;;;9.03;100.00
61128;BME280;47013;42.664;23.242;2022-12-10T06:38:34;93301.06;;;9.08;100.00
61128;BME280;47013;42.664;23.242;2022-12-10T06:40:59;93314.16;;;9.09;100.00
61128;BME280;47013;42.664;23.242;2022-12-10T06:43:27;93321.50;;;9.12;100.00
61128;BME280;47013;42.664;23.242;2022-12-10T06:45:53;93314.50;;;9.15;100.00
61128;BME280;47013;42.664;23.242;2022-12-10T06:48:18;93323.78;;;9.14;100.00
61128;BME280;47013;42.664;23.242;2022-12-10T06:50:43;93334.94;;;9.16;100.00
61128;BME280;47013;42.664;23.242;2022-12-10T06:53:09;93345.41;;;9.14;100.00
61128;BME280;47013;42.664;23.242;2022-12-10T06:55:35;93337.66;;;9.16;100.00
61128;BME280;47013;42.664;23.242;2022-12-10T06:58:01;93338.28;;;9.24;100.00
61128;BME280;47013;42.664;23.242;2022-12-10T07:00:26;93344.06;;;9.26;100.00
61128;BME280;47013;42.664;23.242;2022-12-10T07:02:51;93347.13;;;9.28;100.00
61128;BME280;47013;42.664;23.242;2022-12-10T07:05:16;93348.19;;;9.34;100.00
61128;BME280;47013;42.664;23.242;2022-12-10T07:07:42;93341.91;;;9.40;100.00
61128;BME280;47013;42.664;23.242;2022-12-10T07:10:08;93352.38;;;9.38;100.00
61128;BME280;47013;42.664;23.242;2022-12-10T07:12:33;93340.78;;;9.38;100.00
61128;BME280;47013;42.664;23.242;2022-12-10T07:14:58;93352.41;;;9.35;100.00
61128;BME280;47013;42.664;23.242;2022-12-10T07:17:24;93336.25;;;9.31;100.00
61128;BME280;47013;42.664;23.242;2022-12-10T07:19:49;93317.03;;;9.26;100.00
61128;BME280;47013;42.664;23.242;2022-12-10T07:22:14;93323.13;;;9.30;100.00
61128;BME280;47013;42.664;23.242;2022-12-10T07:24:40;93321.47;;;9.36;100.00
61128;BME280;47013;42.664;23.242;2022-12-10T07:27:05;93324.75;;;9.47;100.00
61128;BME280;47013;42.664;23.242;2022-12-10T07:29:31;93322.88;;;9.44;100.00
61128;BME280;47013;42.664;23.242;2022-12-10T07:31:56;93315.47;;;9.48;100.00
61128;BME280;47013;42.664;23.242;2022-12-10T07:34:21;93337.47;;;9.50;100.00
61128;BME280;47013;42.664;23.242;2022-12-10T07:36:47;93313.94;;;9.47;100.00
61128;BME280;47013;42.664;23.242;2022-12-10T07:39:15;93330.91;;;9.51;100.00
61128;BME280;47013;42.664;23.242;2022-12-10T07:41:51;93328.22;;;9.48;100.00
61128;BME280;47013;42.664;23.242;2022-12-10T07:44:18;93340.16;;;9.50;100.00
61128;BME280;47013;42.664;23.242;2022-12-10T07:46:44;93336.59;;;9.57;100.00
61128;BME280;47013;42.664;23.242;2022-12-10T07:49:10;93311.28;;;9.67;100.00
61128;BME280;47013;42.664;23.242;2022-12-10T07:51:35;93329.50;;;9.63;100.00
61128;BME280;47013;42.664;23.242;2022-12-10T07:54:00;93317.91;;;9.62;100.00
61128;BME280;47013;42.664;23.242;2022-12-10T07:56:26;93313.44;;;9.75;100.00
61128;BME280;47013;42.664;23.242;2022-12-10T07:58:51;93298.50;;;9.67;100.00
61128;BME280;47013;42.664;23.242;2022-12-10T08:01:18;93314.53;;;9.58;100.00
61128;BME280;47013;42.664;23.242;2022-12-10T08:03:44;93300.47;;;9.67;100.00
61128;BME280;47013;42.664;23.242;2022-12-10T08:06:14;93284.16;;;9.70;100.00
61128;BME280;47013;42.664;23.242;2022-12-10T08:08:40;93285.56;;;9.79;100.00
61128;BME280;47013;42.664;23.242;2022-12-10T08:11:05;93288.44;;;9.88;100.00
61128;BME280;47013;42.664;23.242;2022-12-10T08:13:31;93281.72;;;9.96;100.00
61128;BME280;47013;42.664;23.242;2022-12-10T08:16:00;93281.59;;;10.03;100.00
61128;BME280;47013;42.664;23.242;2022-12-10T08:18:25;93273.31;;;10.10;100.00
61128;BME280;47013;42.664;23.242;2022-12-10T08:20:50;93285.84;;;10.24;100.00
61128;BME280;47013;42.664;23.242;2022-12-10T08:23:16;93284.00;;;10.37;100.00
61128;BME280;47013;42.664;23.242;2022-12-10T08:25:41;93278.50;;;10.41;100.00
61128;BME280;47013;42.664;23.242;2022-12-10T08:28:06;93256.78;;;10.44;100.00
61128;BME280;47013;42.664;23.242;2022-12-10T08:30:34;93257.91;;;10.27;100.00
61128;BME280;47013;42.664;23.242;2022-12-10T08:32:59;93270.81;;;10.39;100.00
61128;BME280;47013;42.664;23.242;2022-12-10T08:35:24;93255.94;;;10.47;100.00
61128;BME280;47013;42.664;23.242;2022-12-10T08:37:49;93271.50;;;10.43;100.00
61128;BME280;47013;42.664;23.242;2022-12-10T08:40:15;93262.44;;;10.50;100.00
61128;BME280;47013;42.664;23.242;2022-12-10T08:42:40;93268.22;;;10.52;100.00
61128;BME280;47013;42.664;23.242;2022-12-10T08:45:06;93270.03;;;10.39;100.00
61128;BME280;47013;42.664;23.242;2022-12-10T08:47:31;93262.97;;;10.45;100.00
61128;BME280;47013;42.664;23.242;2022-12-10T08:49:56;93266.75;;;10.47;100.00
61128;BME280;47013;42.664;23.242;2022-12-10T08:52:21;93261.13;;;10.58;100.00
61128;BME280;47013;42.664;23.242;2022-12-10T08:54:47;93258.41;;;10.58;100.00
61128;BME280;47013;42.664;23.242;2022-12-10T08:57:12;93257.97;;;10.59;100.00
61128;BME280;47013;42.664;23.242;2022-12-10T08:59:37;93260.53;;;10.67;100.00
61128;BME280;47013;42.664;23.242;2022-12-10T09:02:02;93242.16;;;10.74;100.00
61128;BME280;47013;42.664;23.242;2022-12-10T09:04:28;93233.25;;;10.74;100.00
61128;BME280;47013;42.664;23.242;2022-12-10T09:06:53;93235.97;;;10.90;100.00
61128;BME280;47013;42.664;23.242;2022-12-10T09:09:18;93239.38;;;10.94;100.00
61128;BME280;47013;42.664;23.242;2022-12-10T09:11:44;93231.47;;;11.00;100.00
61128;BME280;47013;42.664;23.242;2022-12-10T09:14:11;93231.72;;;11.05;100.00
61128;BME280;47013;42.664;23.242;2022-12-10T09:16:36;93240.88;;;11.11;100.00
61128;BME280;47013;42.664;23.242;2022-12-10T09:19:04;93242.31;;;11.16;100.00
61128;BME280;47013;42.664;23.242;2022-12-10T09:21:29;93231.13;;;11.14;100.00
61128;BME280;47013;42.664;23.242;2022-12-10T09:23:55;93231.97;;;11.11;100.00
61128;BME280;47013;42.664;23.242;2022-12-10T09:26:21;93225.19;;;11.03;100.00
61128;BME280;47013;42.664;23.242;2022-12-10T09:28:46;93220.47;;;11.07;100.00
61128;BME280;47013;42.664;23.242;2022-12-10T09:31:12;93232.56;;;11.18;100.00
61128;BME280;47013;42.664;23.242;2022-12-10T09:33:37;93221.53;;;11.26;100.00
61128;BME280;47013;42.664;23.242;2022-12-10T09:36:03;93205.84;;;11.33;100.00
61128;BME280;47013;42.664;23.242;2022-12-10T09:38:30;93206.84;;;11.39;100.00
61128;BME280;47013;42.664;23.242;2022-12-10T09:40:59;93219.81;;;11.32;100.00
61128;BME280;47013;42.664;23.242;2022-12-10T09:46:08;93204.72;;;11.31;100.00
61128;BME280;47013;42.664;23.242;2022-12-10T09:51:09;93209.50;;;11.56;100.00
61128;BME280;47013;42.664;23.242;2022-12-10T09:53:36;93208.84;;;11.80;100.00
61128;BME280;47013;42.664;23.242;2022-12-10T09:56:03;93206.59;;;11.92;98.82
61128;BME280;47013;42.664;23.242;2022-12-10T09:58:28;93205.53;;;12.02;99.38
61128;BME280;47013;42.664;23.242;2022-12-10T10:00:55;93203.63;;;12.28;98.24
61128;BME280;47013;42.664;23.242;2022-12-10T10:03:22;93203.06;;;12.33;94.84
61128;BME280;47013;42.664;23.242;2022-12-10T10:05:51;93206.13;;;12.48;94.07
61128;BME280;47013;42.664;23.242;2022-12-10T10:10:43;93192.81;;;13.00;93.25
61128;BME280;47013;42.664;23.242;2022-12-10T10:15:46;93185.66;;;13.41;87.34
61128;BME280;47013;42.664;23.242;2022-12-10T10:20:37;93175.69;;;13.82;86.73
61128;BME280;47013;42.664;23.242;2022-12-10T10:23:03;93173.06;;;14.00;84.68
61128;BME280;47013;42.664;23.242;2022-12-10T10:25:28;93163.19;;;13.72;84.33
61128;BME280;47013;42.664;23.242;2022-12-10T10:27:54;93165.06;;;14.06;84.95
61128;BME280;47013;42.664;23.242;2022-12-10T10:30:20;93163.72;;;14.10;81.41
61128;BME280;47013;42.664;23.242;2022-12-10T10:32:48;93154.16;;;14.06;83.02
61128;BME280;47013;42.664;23.242;2022-12-10T10:35:24;93141.97;;;14.20;81.92
61128;BME280;47013;42.664;23.242;2022-12-10T10:37:50;93148.81;;;14.24;81.46
61128;BME280;47013;42.664;23.242;2022-12-10T10:40:30;93138.31;;;14.44;82.19
61128;BME280;47013;42.664;23.242;2022-12-10T10:42:57;93141.06;;;14.54;81.66
61128;BME280;47013;42.664;23.242;2022-12-10T10:48:09;93132.41;;;15.04;79.27
61128;BME280;47013;42.664;23.242;2022-12-10T10:50:37;93129.84;;;15.28;77.87
61128;BME280;47013;42.664;23.242;2022-12-10T10:53:18;93134.41;;;15.41;75.57
61128;BME280;47013;42.664;23.242;2022-12-10T10:55:44;93130.75;;;15.25;74.51
61128;BME280;47013;42.664;23.242;2022-12-10T10:58:16;93129.22;;;15.06;74.90
61128;BME280;47013;42.664;23.242;2022-12-10T11:00:42;93118.00;;;15.13;76.21
61128;BME280;47013;42.664;23.242;2022-12-10T11:03:17;93127.84;;;15.20;77.07
61128;BME280;47013;42.664;23.242;2022-12-10T11:05:42;93118.16;;;15.28;76.61
61128;BME280;47013;42.664;23.242;2022-12-10T11:08:18;93111.94;;;15.37;76.64
61128;BME280;47013;42.664;23.242;2022-12-10T11:10:49;93102.38;;;15.32;75.41
61128;BME280;47013;42.664;23.242;2022-12-10T11:15:45;93084.78;;;15.42;75.67
61128;BME280;47013;42.664;23.242;2022-12-10T11:20:57;93075.53;;;15.40;76.57
61128;BME280;47013;42.664;23.242;2022-12-10T11:23:22;93090.69;;;15.50;76.73
61128;BME280;47013;42.664;23.242;2022-12-10T11:31:13;93070.81;;;15.40;74.25
61128;BME280;47013;42.664;23.242;2022-12-10T11:41:04;93060.81;;;15.37;74.93
61128;BME280;47013;42.664;23.242;2022-12-10T11:43:44;93053.38;;;15.38;75.72
61128;BME280;47013;42.664;23.242;2022-12-10T11:49:00;93067.66;;;15.14;76.22
61128;BME280;47013;42.664;23.242;2022-12-10T11:51:48;93059.63;;;15.11;75.68
61128;BME280;47013;42.664;23.242;2022-12-10T11:54:27;93040.81;;;15.13;75.98
61128;BME280;47013;42.664;23.242;2022-12-10T11:56:59;93042.91;;;15.18;76.47
61128;BME280;47013;42.664;23.242;2022-12-10T12:09:29;93035.75;;;14.65;78.22
61128;BME280;47013;42.664;23.242;2022-12-10T12:14:26;93026.81;;;14.06;80.68
61128;BME280;47013;42.664;23.242;2022-12-10T12:17:07;93021.16;;;13.92;81.47
61128;BME280;47013;42.664;23.242;2022-12-10T12:19:45;93019.63;;;13.81;81.76
61128;BME280;47013;42.664;23.242;2022-12-10T12:24:40;93017.31;;;13.80;82.90
61128;BME280;47013;42.664;23.242;2022-12-10T12:27:28;93009.25;;;13.67;83.06
61128;BME280;47013;42.664;23.242;2022-12-10T12:35:42;92990.72;;;13.53;83.18
61128;BME280;47013;42.664;23.242;2022-12-10T12:40:34;92989.28;;;13.39;83.97
61128;BME280;47013;42.664;23.242;2022-12-10T12:43:03;92980.94;;;13.34;84.66
61128;BME280;47013;42.664;23.242;2022-12-10T12:45:31;92979.56;;;13.29;84.78
61128;BME280;47013;42.664;23.242;2022-12-10T12:52:52;92972.78;;;13.12;85.96
61128;BME280;47013;42.664;23.242;2022-12-10T12:55:43;92976.91;;;13.16;85.68
61128;BME280;47013;42.664;23.242;2022-12-10T13:00:29;92957.28;;;13.21;85.83
61128;BME280;47013;42.664;23.242;2022-12-10T13:05:44;92957.16;;;13.25;85.73
61128;BME280;47013;42.664;23.242;2022-12-10T13:13:24;92941.63;;;13.35;86.91
61128;BME280;47013;42.664;23.242;2022-12-10T13:15:49;92946.75;;;13.33;86.95
61128;BME280;47013;42.664;23.242;2022-12-10T13:33:45;92913.75;;;12.99;89.07
61128;BME280;47013;42.664;23.242;2022-12-10T13:36:11;92912.44;;;12.82;90.53
61128;BME280;47013;42.664;23.242;2022-12-10T13:39:04;92889.78;;;12.85;90.80
61128;BME280;47013;42.664;23.242;2022-12-10T13:41:21;92897.53;;;12.65;92.48
61128;BME280;47013;42.664;23.242;2022-12-10T13:44:24;92912.50;;;12.69;93.08
61128;BME280;47013;42.664;23.242;2022-12-10T13:46:57;92894.09;;;12.74;92.44
61128;BME280;47013;42.664;23.242;2022-12-10T13:49:27;92900.88;;;12.69;92.85
61128;BME280;47013;42.664;23.242;2022-12-10T14:07:28;92909.28;;;12.62;92.46
61128;BME280;47013;42.664;23.242;2022-12-10T14:09:55;92915.66;;;12.68;92.07
61128;BME280;47013;42.664;23.242;2022-12-10T14:12:28;92910.84;;;12.72;92.37
61128;BME280;47013;42.664;23.242;2022-12-10T14:14:56;92899.09;;;12.75;92.29
61128;BME280;47013;42.664;23.242;2022-12-10T14:17:24;92899.09;;;12.75;92.60
61128;BME280;47013;42.664;23.242;2022-12-10T14:19:53;92887.44;;;12.75;92.31
61128;BME280;47013;42.664;23.242;2022-12-10T14:22:33;92871.78;;;12.79;92.90
61128;BME280;47013;42.664;23.242;2022-12-10T14:24:59;92867.19;;;12.76;92.53
61128;BME280;47013;42.664;23.242;2022-12-10T14:27:25;92868.28;;;12.78;92.33
61128;BME280;47013;42.664;23.242;2022-12-10T14:29:52;92867.53;;;12.78;92.41
61128;BME280;47013;42.664;23.242;2022-12-10T14:32:20;92842.72;;;12.76;92.76
61128;BME280;47013;42.664;23.242;2022-12-10T14:34:50;92851.03;;;12.72;93.38
61128;BME280;47013;42.664;23.242;2022-12-10T14:37:16;92857.13;;;12.54;94.02
61128;BME280;47013;42.664;23.242;2022-12-10T14:39:44;92844.91;;;12.59;94.10
61128;BME280;47013;42.664;23.242;2022-12-10T14:42:09;92853.19;;;12.55;94.12
61128;BME280;47013;42.664;23.242;2022-12-10T14:44:37;92851.06;;;12.50;95.39
61128;BME280;47013;42.664;23.242;2022-12-10T14:47:05;92852.56;;;12.51;94.92
61128;BME280;47013;42.664;23.242;2022-12-10T14:49:31;92853.13;;;12.46;95.36
61128;BME280;47013;42.664;23.242;2022-12-10T14:51:56;92849.66;;;12.46;95.03
61128;BME280;47013;42.664;23.242;2022-12-10T14:54:29;92848.13;;;12.45;94.98
61128;BME280;47013;42.664;23.242;2022-12-10T14:56:56;92846.19;;;12.45;95.32